createdAt,value
2018-07-14T00:00:15.397Z,22.07
2018-07-14T00:01:15.270Z,22.05
2018-07-14T00:02:15.400Z,22.04
2018-07-14T00:03:15.203Z,22.08
2018-07-14T00:04:15.320Z,22.07
2018-07-14T00:05:15.590Z,22.06
2018-07-14T00:06:15.332Z,22.07
2018-07-14T00:07:15.449Z,22.06
2018-07-14T00:08:15.459Z,22.06
2018-07-14T00:09:15.564Z,22.06
2018-07-14T00:10:15.428Z,22.05
2018-07-14T00:11:15.192Z,22.05
2018-07-14T00:12:15.245Z,22.05
2018-07-14T00:13:15.319Z,22.05
2018-07-14T00:14:15.479Z,22.06
2018-07-14T00:15:15.406Z,22.06
2018-07-14T00:16:15.285Z,22.07
2018-07-14T00:17:15.572Z,22.06
2018-07-14T00:18:15.428Z,22.05
2018-07-14T00:19:15.422Z,22.05
2018-07-14T00:20:15.330Z,22.05
2018-07-14T00:21:15.234Z,22.06
2018-07-14T00:22:15.344Z,22.05
2018-07-14T00:23:15.254Z,22.07
2018-07-14T00:24:15.514Z,22.06
2018-07-14T00:25:15.417Z,22.05
2018-07-14T00:26:15.299Z,22.05
2018-07-14T00:27:15.321Z,22.03
2018-07-14T00:28:15.316Z,22.05
2018-07-14T00:29:15.330Z,22.05
2018-07-14T00:30:15.176Z,22.05
2018-07-14T00:31:15.289Z,22.05
2018-07-14T00:32:15.545Z,22.05
2018-07-14T00:33:15.341Z,22.03
2018-07-14T00:34:15.322Z,22.06
2018-07-14T00:35:15.205Z,22.05
2018-07-14T00:36:15.350Z,22.05
2018-07-14T00:37:15.482Z,22.05
2018-07-14T00:38:15.404Z,22.05
2018-07-14T00:39:15.201Z,22.05
2018-07-14T00:40:15.499Z,22.05
2018-07-14T00:41:15.375Z,22.05
2018-07-14T00:42:15.188Z,22.05
2018-07-14T00:43:15.353Z,22.05
2018-07-14T00:44:15.217Z,22.05
2018-07-14T00:45:15.242Z,22.05
2018-07-14T00:46:15.553Z,22.05
2018-07-14T00:47:15.239Z,22.06
2018-07-14T00:48:15.191Z,22.05
2018-07-14T00:49:15.348Z,22.04
2018-07-14T00:50:15.257Z,22.05
2018-07-14T00:51:15.235Z,22.05
2018-07-14T00:52:15.390Z,22.03
2018-07-14T00:53:15.238Z,22.04
2018-07-14T00:54:15.318Z,22.05
2018-07-14T00:55:15.192Z,22.04
2018-07-14T00:56:15.323Z,22.05
2018-07-14T00:57:15.143Z,22.05
2018-07-14T00:58:15.261Z,22.05
2018-07-14T00:59:15.387Z,22.03
2018-07-14T01:00:15.334Z,22.05
2018-07-14T01:01:15.357Z,22.05
2018-07-14T01:02:15.353Z,22.04
2018-07-14T01:03:15.336Z,22.04
2018-07-14T01:04:15.304Z,22.06
2018-07-14T01:05:15.474Z,22.05
2018-07-14T01:06:15.154Z,22.04
2018-07-14T01:07:15.244Z,22.04
2018-07-14T01:08:15.302Z,22.05
2018-07-14T01:09:15.380Z,22.04
2018-07-14T01:10:15.281Z,22.02
2018-07-14T01:11:15.217Z,22.02
2018-07-14T01:12:15.445Z,22.02
2018-07-14T01:13:15.456Z,22.03
2018-07-14T01:14:15.310Z,22.03
2018-07-14T01:15:15.172Z,22.03
2018-07-14T01:16:15.376Z,22.05
2018-07-14T01:17:15.406Z,22.03
2018-07-14T01:18:15.254Z,22.05
2018-07-14T01:19:15.281Z,22.04
2018-07-14T01:20:15.390Z,22.03
2018-07-14T01:21:15.441Z,22.03
2018-07-14T01:22:15.247Z,22.02
2018-07-14T01:23:46.609Z,22.05
2018-07-14T01:24:15.372Z,22.03
2018-07-14T01:25:15.327Z,21.99
2018-07-14T01:26:15.199Z,22.04
2018-07-14T01:27:15.391Z,22.03
2018-07-14T01:28:15.260Z,22.02
2018-07-14T01:29:15.700Z,22.04
2018-07-14T01:30:15.334Z,22.02
2018-07-14T01:31:15.270Z,22.03
2018-07-14T01:32:15.342Z,22.03
2018-07-14T01:33:15.451Z,22.02
2018-07-14T01:34:15.226Z,22.02
2018-07-14T01:35:15.169Z,22.03
2018-07-14T01:36:15.237Z,22.02
2018-07-14T01:37:15.221Z,22.02
2018-07-14T01:38:15.173Z,22.04
2018-07-14T01:39:15.344Z,22.02
2018-07-14T01:40:15.440Z,22.03
2018-07-14T01:41:15.283Z,22.02
2018-07-14T01:42:15.413Z,22.02
2018-07-14T01:43:15.481Z,22.04
2018-07-14T01:44:15.554Z,22.04
2018-07-14T01:45:15.465Z,22.02
2018-07-14T01:46:25.525Z,22.03
2018-07-14T01:47:15.297Z,22.02
2018-07-14T01:48:15.217Z,22.01
2018-07-14T01:49:15.296Z,22.02
2018-07-14T01:50:15.424Z,22.02
2018-07-14T01:51:15.141Z,22.03
2018-07-14T01:52:15.247Z,22.02
2018-07-14T01:53:15.398Z,22.01
2018-07-14T01:54:15.245Z,22.01
2018-07-14T01:55:15.536Z,22.04
2018-07-14T01:56:15.279Z,22.02
2018-07-14T01:57:15.362Z,22.02
2018-07-14T01:58:15.225Z,22.02
2018-07-14T01:59:15.239Z,22.02
2018-07-14T02:00:15.208Z,22.02
2018-07-14T02:01:15.230Z,22.03
2018-07-14T02:02:15.298Z,22.02
2018-07-14T02:03:15.420Z,22.02
2018-07-14T02:04:15.296Z,22.04
2018-07-14T02:05:15.330Z,22.02
2018-07-14T02:06:15.298Z,22.01
2018-07-14T02:07:15.479Z,22.01
2018-07-14T02:08:15.344Z,22.01
2018-07-14T02:09:15.390Z,22.01
2018-07-14T02:10:15.288Z,21.99
2018-07-14T02:11:15.087Z,21.99
2018-07-14T02:12:15.393Z,22.02
2018-07-14T02:13:15.249Z,22.02
2018-07-14T02:14:15.357Z,22.01
2018-07-14T02:15:15.286Z,21.99
2018-07-14T02:16:15.450Z,22.01
2018-07-14T02:17:15.477Z,22.01
2018-07-14T02:18:15.309Z,22.02
2018-07-14T02:19:15.207Z,22.01
2018-07-14T02:20:15.147Z,21.99
2018-07-14T02:21:15.377Z,22.01
2018-07-14T02:22:15.435Z,21.99
2018-07-14T02:23:15.305Z,22.01
2018-07-14T02:24:15.262Z,22.01
2018-07-14T02:25:15.403Z,22.02
2018-07-14T02:26:15.339Z,21.99
2018-07-14T02:27:15.261Z,22.02
2018-07-14T02:28:15.458Z,22.01
2018-07-14T02:29:15.445Z,22.01
2018-07-14T02:30:15.532Z,21.99
2018-07-14T02:31:15.098Z,22.01
2018-07-14T02:32:15.297Z,21.98
2018-07-14T02:33:15.333Z,22.01
2018-07-14T02:34:15.296Z,21.98
2018-07-14T02:35:15.336Z,21.99
2018-07-14T02:36:15.385Z,22.01
2018-07-14T02:37:15.378Z,22.01
2018-07-14T02:38:15.430Z,22.02
2018-07-14T02:39:15.453Z,22.01
2018-07-14T02:40:15.162Z,22.02
2018-07-14T02:41:15.673Z,22.01
2018-07-14T02:42:15.268Z,22.03
2018-07-14T02:43:15.420Z,22.02
2018-07-14T02:44:15.222Z,22.02
2018-07-14T02:45:15.310Z,22.01
2018-07-14T02:46:15.275Z,22.02
2018-07-14T02:47:15.171Z,22.01
2018-07-14T02:48:15.310Z,21.99
2018-07-14T02:49:15.388Z,22.02
2018-07-14T02:50:15.665Z,21.99
2018-07-14T02:51:15.346Z,21.98
2018-07-14T02:52:15.501Z,22.01
2018-07-14T02:53:15.217Z,22.01
2018-07-14T02:54:15.288Z,21.98
2018-07-14T02:55:15.287Z,22.02
2018-07-14T02:56:15.426Z,22.01
2018-07-14T02:57:15.282Z,22.01
2018-07-14T02:58:15.120Z,22.02
2018-07-14T02:59:15.263Z,22.01
2018-07-14T03:00:15.267Z,21.98
2018-07-14T03:01:15.253Z,22.01
2018-07-14T03:02:15.269Z,22.01
2018-07-14T03:03:15.353Z,22.01
2018-07-14T03:04:15.406Z,21.99
2018-07-14T03:05:15.442Z,21.98
2018-07-14T03:06:15.357Z,22.01
2018-07-14T03:07:15.340Z,21.99
2018-07-14T03:08:15.296Z,22.02
2018-07-14T03:09:15.276Z,21.98
2018-07-14T03:10:15.298Z,21.99
2018-07-14T03:11:15.293Z,21.98
2018-07-14T03:12:15.355Z,22.01
2018-07-14T03:13:15.719Z,22.01
2018-07-14T03:14:15.267Z,21.98
2018-07-14T03:15:15.373Z,21.97
2018-07-14T03:16:15.426Z,21.99
2018-07-14T03:17:15.317Z,21.99
2018-07-14T03:18:15.292Z,21.99
2018-07-14T03:19:15.575Z,21.98
2018-07-14T03:20:15.247Z,21.99
2018-07-14T03:21:15.398Z,21.99
2018-07-14T03:22:15.505Z,21.99
2018-07-14T03:23:15.251Z,21.97
2018-07-14T03:24:15.347Z,21.98
2018-07-14T03:25:15.158Z,22.02
2018-07-14T03:26:15.771Z,21.99
2018-07-14T03:27:15.265Z,21.97
2018-07-14T03:28:15.303Z,22.01
2018-07-14T03:29:15.073Z,21.97
2018-07-14T03:30:15.407Z,21.97
2018-07-14T03:31:15.284Z,21.97
2018-07-14T03:32:15.311Z,21.99
2018-07-14T03:33:15.637Z,21.99
2018-07-14T03:34:15.222Z,21.97
2018-07-14T03:35:15.250Z,21.98
2018-07-14T03:36:15.347Z,21.98
2018-07-14T03:37:15.310Z,21.97
2018-07-14T03:38:15.161Z,21.98
2018-07-14T03:39:15.161Z,21.95
2018-07-14T03:40:15.383Z,21.97
2018-07-14T03:41:15.181Z,21.97
2018-07-14T03:42:15.321Z,21.97
2018-07-14T03:43:15.407Z,21.97
2018-07-14T03:44:15.432Z,21.96
2018-07-14T03:45:15.308Z,21.98
2018-07-14T03:46:15.189Z,21.98
2018-07-14T03:47:15.129Z,21.99
2018-07-14T03:48:15.180Z,21.97
2018-07-14T03:49:15.392Z,21.97
2018-07-14T03:50:15.263Z,21.97
2018-07-14T03:51:15.310Z,21.97
2018-07-14T03:52:15.174Z,21.97
2018-07-14T03:53:15.394Z,21.96
2018-07-14T03:54:15.461Z,21.97
2018-07-14T03:55:15.127Z,21.98
2018-07-14T03:56:15.194Z,21.97
2018-07-14T03:57:15.379Z,21.96
2018-07-14T03:58:15.286Z,21.97
2018-07-14T03:59:15.342Z,21.97
2018-07-14T04:00:15.277Z,21.99
2018-07-14T04:01:15.250Z,21.99
2018-07-14T04:02:15.402Z,21.97
2018-07-14T04:03:15.469Z,21.97
2018-07-14T04:04:15.345Z,21.97
2018-07-14T04:05:15.310Z,21.96
2018-07-14T04:06:15.221Z,21.97
2018-07-14T04:07:15.245Z,21.96
2018-07-14T04:08:15.349Z,21.97
2018-07-14T04:09:15.248Z,21.97
2018-07-14T04:10:15.327Z,21.97
2018-07-14T04:11:15.327Z,21.95
2018-07-14T04:12:15.224Z,21.97
2018-07-14T04:13:15.316Z,21.98
2018-07-14T04:14:15.362Z,21.96
2018-07-14T04:15:15.362Z,21.97
2018-07-14T04:16:25.206Z,21.99
2018-07-14T04:17:15.287Z,21.94
2018-07-14T04:18:15.513Z,21.95
2018-07-14T04:19:15.237Z,21.97
2018-07-14T04:20:15.407Z,21.97
2018-07-14T04:21:15.132Z,21.94
2018-07-14T04:22:15.556Z,21.97
2018-07-14T04:23:15.349Z,21.98
2018-07-14T04:24:15.228Z,21.97
2018-07-14T04:25:15.205Z,21.97
2018-07-14T04:26:15.496Z,21.98
2018-07-14T04:27:15.410Z,21.97
2018-07-14T04:28:15.345Z,21.97
2018-07-14T04:29:15.236Z,21.98
2018-07-14T04:30:15.175Z,21.97
2018-07-14T04:31:15.210Z,21.95
2018-07-14T04:32:15.337Z,21.97
2018-07-14T04:33:15.338Z,21.95
2018-07-14T04:34:15.322Z,21.95
2018-07-14T04:35:15.407Z,21.96
2018-07-14T04:36:15.202Z,21.97
2018-07-14T04:37:15.581Z,21.96
2018-07-14T04:38:15.343Z,21.96
2018-07-14T04:39:15.206Z,21.96
2018-07-14T04:40:15.301Z,21.95
2018-07-14T04:41:15.272Z,21.98
2018-07-14T04:42:15.290Z,21.95
2018-07-14T04:43:15.191Z,21.97
2018-07-14T04:44:15.367Z,21.96
2018-07-14T04:45:15.264Z,21.97
2018-07-14T04:46:15.169Z,21.97
2018-07-14T04:47:15.262Z,21.97
2018-07-14T04:48:15.190Z,21.96
2018-07-14T04:49:15.129Z,21.98
2018-07-14T04:50:15.299Z,21.97
2018-07-14T04:51:15.234Z,21.98
2018-07-14T04:52:15.336Z,21.97
2018-07-14T04:53:15.972Z,21.97
2018-07-14T04:54:15.134Z,21.95
2018-07-14T04:55:15.311Z,21.96
2018-07-14T04:56:15.305Z,22.01
2018-07-14T04:57:15.065Z,21.88
2018-07-14T04:58:15.346Z,21.75
2018-07-14T04:59:15.289Z,21.64
2018-07-14T05:00:15.203Z,21.52
2018-07-14T05:01:15.301Z,21.47
2018-07-14T05:02:15.190Z,21.44
2018-07-14T05:03:15.349Z,21.42
2018-07-14T05:04:15.251Z,21.4
2018-07-14T05:05:15.345Z,21.35
2018-07-14T05:06:15.194Z,21.31
2018-07-14T05:07:15.256Z,21.3
2018-07-14T05:08:15.308Z,21.23
2018-07-14T05:09:15.227Z,21.24
2018-07-14T05:10:15.395Z,21.2
2018-07-14T05:11:15.341Z,21.15
2018-07-14T05:12:15.224Z,21.14
2018-07-14T05:13:15.297Z,21.13
2018-07-14T05:14:15.179Z,21.09
2018-07-14T05:15:15.145Z,21.09
2018-07-14T05:16:15.286Z,21.06
2018-07-14T05:17:15.232Z,21.14
2018-07-14T05:18:15.185Z,21.17
2018-07-14T05:19:15.296Z,21.17
2018-07-14T05:20:15.185Z,21.1
2018-07-14T05:21:15.643Z,21.07
2018-07-14T05:22:15.480Z,21.04
2018-07-14T05:23:15.279Z,21.02
2018-07-14T05:24:15.115Z,20.96
2018-07-14T05:25:15.221Z,20.95
2018-07-14T05:26:15.436Z,20.96
2018-07-14T05:27:15.178Z,20.92
2018-07-14T05:28:15.319Z,20.95
2018-07-14T05:29:16.723Z,21
2018-07-14T05:30:15.153Z,20.93
2018-07-14T05:31:15.219Z,20.96
2018-07-14T05:32:15.395Z,20.95
2018-07-14T05:33:15.232Z,21
2018-07-14T05:34:15.246Z,21.03
2018-07-14T05:35:15.435Z,21.03
2018-07-14T05:36:15.272Z,21.03
2018-07-14T05:37:15.166Z,21.05
2018-07-14T05:38:15.379Z,21
2018-07-14T05:39:15.393Z,20.99
2018-07-14T05:40:15.221Z,20.92
2018-07-14T05:41:15.218Z,20.92
2018-07-14T05:42:15.110Z,20.92
2018-07-14T05:43:15.206Z,20.96
2018-07-14T05:44:15.505Z,20.94
2018-07-14T05:45:15.154Z,20.96
2018-07-14T05:46:15.347Z,20.99
2018-07-14T05:47:15.404Z,21.02
2018-07-14T05:48:15.153Z,21.02
2018-07-14T05:49:15.415Z,21.05
2018-07-14T05:50:15.352Z,21.02
2018-07-14T05:51:15.206Z,21.05
2018-07-14T05:52:15.297Z,21.05
2018-07-14T05:53:15.336Z,21.05
2018-07-14T05:54:15.251Z,21.05
2018-07-14T05:55:15.438Z,21.06
2018-07-14T05:56:15.130Z,21.06
2018-07-14T05:57:15.159Z,21.13
2018-07-14T05:58:15.329Z,21.1
2018-07-14T05:59:15.218Z,21.1
2018-07-14T06:00:15.175Z,21.2
2018-07-14T06:01:15.349Z,21.17
2018-07-14T06:02:15.270Z,21.17
2018-07-14T06:03:15.300Z,21.15
2018-07-14T06:04:15.116Z,21.17
2018-07-14T06:05:15.299Z,21.16
2018-07-14T06:06:15.173Z,21.15
2018-07-14T06:07:15.333Z,21.15
2018-07-14T06:08:15.399Z,21.18
2018-07-14T06:09:25.130Z,21.18
2018-07-14T06:10:15.268Z,21.24
2018-07-14T06:11:15.243Z,21.24
2018-07-14T06:12:15.163Z,21.24
2018-07-14T06:13:15.302Z,21.23
2018-07-14T06:14:15.731Z,21.27
2018-07-14T06:15:15.127Z,21.32
2018-07-14T06:16:15.534Z,21.33
2018-07-14T06:17:15.467Z,21.32
2018-07-14T06:18:15.174Z,21.31
2018-07-14T06:19:15.267Z,21.35
2018-07-14T06:20:15.322Z,21.35
2018-07-14T06:21:15.213Z,21.35
2018-07-14T06:22:15.333Z,21.35
2018-07-14T06:23:15.373Z,21.35
2018-07-14T06:24:15.137Z,21.38
2018-07-14T06:25:15.312Z,21.4
2018-07-14T06:26:15.303Z,21.36
2018-07-14T06:27:15.246Z,21.35
2018-07-14T06:28:15.266Z,21.4
2018-07-14T06:29:15.311Z,21.44
2018-07-14T06:30:15.400Z,21.44
2018-07-14T06:31:15.320Z,21.42
2018-07-14T06:32:15.183Z,21.43
2018-07-14T06:33:15.365Z,21.46
2018-07-14T06:34:15.172Z,21.45
2018-07-14T06:35:15.167Z,21.47
2018-07-14T06:36:15.253Z,21.46
2018-07-14T06:37:15.164Z,21.47
2018-07-14T06:38:15.790Z,21.47
2018-07-14T06:39:15.318Z,21.49
2018-07-14T06:40:15.163Z,21.47
2018-07-14T06:41:15.656Z,21.47
2018-07-14T06:42:20.093Z,21.48
2018-07-14T06:43:15.358Z,21.5
2018-07-14T06:44:15.269Z,21.49
2018-07-14T06:45:15.134Z,21.52
2018-07-14T06:46:15.435Z,21.52
2018-07-14T06:47:15.542Z,21.52
2018-07-14T06:48:15.268Z,21.53
2018-07-14T06:49:15.198Z,21.58
2018-07-14T06:50:15.474Z,21.58
2018-07-14T06:51:15.206Z,21.59
2018-07-14T06:52:15.284Z,21.55
2018-07-14T06:53:15.350Z,21.6
2018-07-14T06:54:15.491Z,21.6
2018-07-14T06:55:15.328Z,21.59
2018-07-14T06:56:15.597Z,21.59
2018-07-14T06:57:15.124Z,21.59
2018-07-14T06:58:15.242Z,21.57
2018-07-14T06:59:15.154Z,21.6
2018-07-14T07:00:15.311Z,21.62
2018-07-14T07:01:15.307Z,21.62
2018-07-14T07:02:15.166Z,21.61
2018-07-14T07:03:15.351Z,21.65
2018-07-14T07:04:15.250Z,21.64
2018-07-14T07:05:15.170Z,21.62
2018-07-14T07:06:15.292Z,21.65
2018-07-14T07:07:15.387Z,21.67
2018-07-14T07:08:15.102Z,21.69
2018-07-14T07:09:15.191Z,21.7
2018-07-14T07:10:15.313Z,21.7
2018-07-14T07:11:15.150Z,21.66
2018-07-14T07:12:15.167Z,21.66
2018-07-14T07:13:15.326Z,21.66
2018-07-14T07:14:15.299Z,21.66
2018-07-14T07:15:15.253Z,21.64
2018-07-14T07:16:15.263Z,21.66
2018-07-14T07:17:15.299Z,21.65
2018-07-14T07:18:15.233Z,21.65
2018-07-14T07:19:15.390Z,21.65
2018-07-14T07:20:15.141Z,21.64
2018-07-14T07:21:15.423Z,21.63
2018-07-14T07:22:15.149Z,21.63
2018-07-14T07:23:15.253Z,21.66
2018-07-14T07:24:15.566Z,21.68
2018-07-14T07:25:15.148Z,21.74
2018-07-14T07:26:15.305Z,21.73
2018-07-14T07:27:15.269Z,21.72
2018-07-14T07:28:15.338Z,21.7
2018-07-14T07:29:15.149Z,21.69
2018-07-14T07:30:15.115Z,21.69
2018-07-14T07:31:15.845Z,21.73
2018-07-14T07:32:15.383Z,21.73
2018-07-14T07:33:15.381Z,21.73
2018-07-14T07:34:15.329Z,21.78
2018-07-14T07:35:15.304Z,21.8
2018-07-14T07:36:15.275Z,21.82
2018-07-14T07:37:15.855Z,21.83
2018-07-14T07:38:15.273Z,21.8
2018-07-14T07:39:16.139Z,21.87
2018-07-14T07:40:15.610Z,21.83
2018-07-14T07:41:15.354Z,21.81
2018-07-14T07:42:15.515Z,21.82
2018-07-14T07:43:15.496Z,21.81
2018-07-14T07:44:15.187Z,21.82
2018-07-14T07:45:15.342Z,21.8
2018-07-14T07:46:15.177Z,21.82
2018-07-14T07:47:15.308Z,21.8
2018-07-14T07:48:15.381Z,21.81
2018-07-14T07:49:15.311Z,21.82
2018-07-14T07:50:15.165Z,21.83
2018-07-14T07:51:15.421Z,21.83
2018-07-14T07:52:15.207Z,21.85
2018-07-14T07:53:15.299Z,21.83
2018-07-14T07:54:15.185Z,21.83
2018-07-14T07:55:15.336Z,21.85
2018-07-14T07:56:15.185Z,21.84
2018-07-14T07:57:15.854Z,21.84
2018-07-14T07:58:15.202Z,21.87
2018-07-14T07:59:15.156Z,21.83
2018-07-14T08:00:15.356Z,21.87
2018-07-14T08:01:15.214Z,21.83
2018-07-14T08:02:15.290Z,21.83
2018-07-14T08:03:15.152Z,21.85
2018-07-14T08:04:15.217Z,21.83
2018-07-14T08:05:15.150Z,21.83
2018-07-14T08:06:15.345Z,21.9
2018-07-14T08:07:15.302Z,21.88
2018-07-14T08:08:15.012Z,21.89
2018-07-14T08:09:15.192Z,21.89
2018-07-14T08:10:15.331Z,21.89
2018-07-14T08:11:15.158Z,21.9
2018-07-14T08:12:15.474Z,21.91
2018-07-14T08:13:15.298Z,21.95
2018-07-14T08:14:15.436Z,22.02
2018-07-14T08:15:15.128Z,22.04
2018-07-14T08:16:47.076Z,22.01
2018-07-14T08:17:15.196Z,22.03
2018-07-14T08:18:15.164Z,22.04
2018-07-14T08:19:15.189Z,21.98
2018-07-14T08:20:15.362Z,21.96
2018-07-14T08:21:15.155Z,21.97
2018-07-14T08:22:15.223Z,21.92
2018-07-14T08:23:15.339Z,21.93
2018-07-14T08:24:15.227Z,21.93
2018-07-14T08:25:15.412Z,21.91
2018-07-14T08:26:15.138Z,21.91
2018-07-14T08:27:15.258Z,21.89
2018-07-14T08:28:15.113Z,21.89
2018-07-14T08:29:15.249Z,21.89
2018-07-14T08:30:15.078Z,21.88
2018-07-14T08:31:15.156Z,21.89
2018-07-14T08:32:15.422Z,21.85
2018-07-14T08:33:15.285Z,21.85
2018-07-14T08:34:15.171Z,21.88
2018-07-14T08:35:15.224Z,21.85
2018-07-14T08:36:15.327Z,21.84
2018-07-14T08:37:15.330Z,21.83
2018-07-14T08:38:15.222Z,21.83
2018-07-14T08:39:15.097Z,21.85
2018-07-14T08:40:15.280Z,21.84
2018-07-14T08:41:15.202Z,21.83
2018-07-14T08:42:15.123Z,21.82
2018-07-14T08:43:15.259Z,21.84
2018-07-14T08:44:15.205Z,21.87
2018-07-14T08:45:15.168Z,21.84
2018-07-14T08:46:15.204Z,21.83
2018-07-14T08:47:15.194Z,21.85
2018-07-14T08:48:15.116Z,21.84
2018-07-14T08:49:15.225Z,21.82
2018-07-14T08:50:15.288Z,21.83
2018-07-14T08:51:15.575Z,21.83
2018-07-14T08:52:15.344Z,21.82
2018-07-14T08:53:15.214Z,21.83
2018-07-14T08:54:15.288Z,21.83
2018-07-14T08:55:15.230Z,21.85
2018-07-14T08:56:15.203Z,21.82
2018-07-14T08:57:15.037Z,21.83
2018-07-14T08:58:15.683Z,21.82
2018-07-14T08:59:15.344Z,21.83
2018-07-14T09:00:15.165Z,21.81
2018-07-14T09:01:15.289Z,21.82
2018-07-14T09:02:15.064Z,21.81
2018-07-14T09:03:15.469Z,21.82
2018-07-14T09:04:15.463Z,21.83
2018-07-14T09:05:15.331Z,21.82
2018-07-14T09:06:15.052Z,21.83
2018-07-14T09:07:15.225Z,21.83
2018-07-14T09:08:15.451Z,21.82
2018-07-14T09:09:15.214Z,21.83
2018-07-14T09:10:15.167Z,21.89
2018-07-14T09:11:15.207Z,21.91
2018-07-14T09:12:15.365Z,21.9
2018-07-14T09:13:15.161Z,21.92
2018-07-14T09:14:15.241Z,21.9
2018-07-14T09:15:15.087Z,21.91
2018-07-14T09:16:15.199Z,21.91
2018-07-14T09:17:15.236Z,21.93
2018-07-14T09:18:15.147Z,21.92
2018-07-14T09:19:15.128Z,21.95
2018-07-14T09:20:15.231Z,21.96
2018-07-14T09:21:15.145Z,21.94
2018-07-14T09:22:15.209Z,21.98
2018-07-14T09:23:15.114Z,22.01
2018-07-14T09:24:25.215Z,21.98
2018-07-14T09:25:15.253Z,22.02
2018-07-14T09:26:15.605Z,22.02
2018-07-14T09:27:15.337Z,22.04
2018-07-14T09:28:15.167Z,22.03
2018-07-14T09:29:15.053Z,22.05
2018-07-14T09:30:15.289Z,22.08
2018-07-14T09:31:15.166Z,22.08
2018-07-14T09:32:15.524Z,22.1
2018-07-14T09:33:15.196Z,22.1
2018-07-14T09:34:15.356Z,22.1
2018-07-14T09:35:15.388Z,22.1
2018-07-14T09:36:15.208Z,22.11
2018-07-14T09:37:15.354Z,22.14
2018-07-14T09:38:25.386Z,22.11
2018-07-14T09:39:15.123Z,22.13
2018-07-14T09:40:15.170Z,22.14
2018-07-14T09:41:15.288Z,22.14
2018-07-14T09:42:15.047Z,22.13
2018-07-14T09:43:15.193Z,22.19
2018-07-14T09:44:15.232Z,22.14
2018-07-14T09:45:15.154Z,22.14
2018-07-14T09:46:15.222Z,22.12
2018-07-14T09:47:15.089Z,22.14
2018-07-14T09:48:15.050Z,22.14
2018-07-14T09:49:15.152Z,22.16
2018-07-14T09:50:15.275Z,22.16
2018-07-14T09:51:15.170Z,22.17
2018-07-14T09:52:15.278Z,22.17
2018-07-14T09:53:15.127Z,22.17
2018-07-14T09:54:15.005Z,22.19
2018-07-14T09:55:15.599Z,22.19
2018-07-14T09:56:15.568Z,22.19
2018-07-14T09:57:15.027Z,22.21
2018-07-14T09:58:15.281Z,22.2
2018-07-14T09:59:15.166Z,22.21
2018-07-14T10:00:15.313Z,22.21
2018-07-14T10:01:15.218Z,22.25
2018-07-14T10:02:15.028Z,22.24
2018-07-14T10:03:15.356Z,22.26
2018-07-14T10:04:15.074Z,22.24
2018-07-14T10:05:15.295Z,22.24
2018-07-14T10:06:15.577Z,22.26
2018-07-14T10:07:15.401Z,22.27
2018-07-14T10:08:15.066Z,22.28
2018-07-14T10:09:15.066Z,22.28
2018-07-14T10:10:15.223Z,22.28
2018-07-14T10:11:15.118Z,22.29
2018-07-14T10:12:15.330Z,22.28
2018-07-14T10:13:15.647Z,22.25
2018-07-14T10:14:15.084Z,22.31
2018-07-14T10:15:15.349Z,22.31
2018-07-14T10:16:15.195Z,22.28
2018-07-14T10:17:15.412Z,22.31
2018-07-14T10:18:15.028Z,22.29
2018-07-14T10:19:15.226Z,22.32
2018-07-14T10:20:15.235Z,22.33
2018-07-14T10:21:15.280Z,22.31
2018-07-14T10:22:15.543Z,22.34
2018-07-14T10:23:15.356Z,22.34
2018-07-14T10:24:15.266Z,22.35
2018-07-14T10:25:16.456Z,22.33
2018-07-14T10:26:15.116Z,22.34
2018-07-14T10:27:46.923Z,22.33
2018-07-14T10:28:15.166Z,22.31
2018-07-14T10:29:15.093Z,22.28
2018-07-14T10:30:15.164Z,22.31
2018-07-14T10:31:15.133Z,22.32
2018-07-14T10:32:15.146Z,22.31
2018-07-14T10:33:15.316Z,22.31
2018-07-14T10:34:15.104Z,22.32
2018-07-14T10:35:15.284Z,22.29
2018-07-14T10:36:15.107Z,22.33
2018-07-14T10:37:14.944Z,22.34
2018-07-14T10:38:15.148Z,22.33
2018-07-14T10:38:44.612Z,22.34
2018-07-14T10:39:39.940Z,22.34
2018-07-14T10:40:39.464Z,22.36
2018-07-14T10:40:56.136Z,22.4
2018-07-14T10:41:22.693Z,22.4
2018-07-14T10:44:20.334Z,22.43
2018-07-14T10:44:59.648Z,22.48
2018-07-14T10:45:21.358Z,22.5
2018-07-14T10:46:21.745Z,22.47
2018-07-14T10:47:21.408Z,22.42
2018-07-14T10:48:21.428Z,22.4
2018-07-14T10:49:21.577Z,22.4
2018-07-14T10:50:21.659Z,22.41
2018-07-14T10:51:21.609Z,22.42
2018-07-14T10:52:21.537Z,22.4
2018-07-14T10:53:21.603Z,22.4
2018-07-14T10:54:31.577Z,22.42
2018-07-14T10:55:21.638Z,22.42
2018-07-14T10:56:21.645Z,22.42
2018-07-14T10:57:21.737Z,22.39
2018-07-14T10:58:21.621Z,22.4
2018-07-14T10:59:21.520Z,22.42
2018-07-14T11:00:21.582Z,22.42
2018-07-14T11:01:21.630Z,22.4
2018-07-14T11:02:21.527Z,22.42
2018-07-14T11:03:21.582Z,22.42
2018-07-14T11:04:21.933Z,22.44
2018-07-14T11:05:21.548Z,22.44
2018-07-14T11:06:21.560Z,22.43
2018-07-14T11:07:21.606Z,22.44
2018-07-14T11:08:44.059Z,22.41
2018-07-14T11:09:44.204Z,22.39
2018-07-14T11:10:44.082Z,22.39
2018-07-14T11:11:44.052Z,22.38
2018-07-14T11:12:43.995Z,22.4
2018-07-14T11:13:44.143Z,22.38
2018-07-14T11:14:43.967Z,22.4
2018-07-14T11:15:44.018Z,22.4
2018-07-14T11:16:43.968Z,22.4
2018-07-14T11:17:44.475Z,22.39
2018-07-14T11:18:44.088Z,22.38
2018-07-14T11:19:44.250Z,22.39
2018-07-14T11:20:44.196Z,22.42
2018-07-14T11:21:43.976Z,22.38
2018-07-14T11:22:44.114Z,22.41
2018-07-14T11:23:44.554Z,22.38
2018-07-14T11:24:44.210Z,22.39
2018-07-14T11:25:44.004Z,22.39
2018-07-14T11:26:44.120Z,22.42
2018-07-14T11:27:44.129Z,22.39
2018-07-14T11:28:44.054Z,22.38
2018-07-14T11:29:44.161Z,22.38
2018-07-14T11:30:43.993Z,22.38
2018-07-14T11:31:44.121Z,22.37
2018-07-14T11:32:44.123Z,22.36
2018-07-14T11:33:44.076Z,22.38
2018-07-14T11:34:44.252Z,22.36
2018-07-14T11:35:44.146Z,22.35
2018-07-14T11:36:44.235Z,22.31
2018-07-14T11:37:44.529Z,22.29
2018-07-14T11:38:44.092Z,22.29
2018-07-14T11:39:44.212Z,22.29
2018-07-14T11:40:44.108Z,22.28
2018-07-14T11:41:44.094Z,22.27
2018-07-14T11:42:44.193Z,22.24
2018-07-14T11:43:44.289Z,22.25
2018-07-14T11:44:44.136Z,22.24
2018-07-14T11:45:44.103Z,22.24
2018-07-14T11:46:44.059Z,22.22
2018-07-14T11:47:44.348Z,22.21
2018-07-14T11:48:44.184Z,22.22
2018-07-14T11:49:43.955Z,22.23
2018-07-14T11:50:44.009Z,22.21
2018-07-14T11:51:44.136Z,22.21
2018-07-14T11:52:44.261Z,22.2
2018-07-14T11:53:44.144Z,22.2
2018-07-14T11:54:44.395Z,22.19
2018-07-14T11:55:44.136Z,22.19
2018-07-14T11:56:44.067Z,22.19
2018-07-14T11:57:44.218Z,22.19
2018-07-14T11:58:44.269Z,22.19
2018-07-14T11:59:44.032Z,22.2
2018-07-14T12:00:44.059Z,22.19
2018-07-14T12:01:44.189Z,22.2
2018-07-14T12:02:43.939Z,22.2
2018-07-14T12:03:44.312Z,22.19
2018-07-14T12:04:44.142Z,22.18
2018-07-14T12:05:44.148Z,22.17
2018-07-14T12:06:44.190Z,22.18
2018-07-14T12:07:44.241Z,22.16
2018-07-14T12:08:44.279Z,22.19
2018-07-14T12:09:44.188Z,22.18
2018-07-14T12:10:44.333Z,22.17
2018-07-14T12:11:43.968Z,22.18
2018-07-14T12:12:44.121Z,22.18
2018-07-14T12:13:44.406Z,22.17
2018-07-14T12:14:44.091Z,22.16
2018-07-14T12:15:44.233Z,22.17
2018-07-14T12:16:44.128Z,22.14
2018-07-14T12:17:44.041Z,22.17
2018-07-14T12:18:44.016Z,22.16
2018-07-14T12:19:43.994Z,22.16
2018-07-14T12:20:44.059Z,22.17
2018-07-14T12:21:44.177Z,22.14
2018-07-14T12:22:44.026Z,22.23
2018-07-14T12:23:44.132Z,22.22
2018-07-14T12:24:44.294Z,22.27
2018-07-14T12:25:44.020Z,22.27
2018-07-14T12:26:44.218Z,22.27
2018-07-14T12:27:43.969Z,22.27
2018-07-14T12:28:44.280Z,22.31
2018-07-14T12:29:44.146Z,22.29
2018-07-14T12:30:44.538Z,22.29
2018-07-14T12:31:44.276Z,22.31
2018-07-14T12:32:44.159Z,22.33
2018-07-14T12:33:44.203Z,22.34
2018-07-14T12:34:44.119Z,22.33
2018-07-14T12:35:44.227Z,22.35
2018-07-14T12:36:44.956Z,22.37
2018-07-14T12:37:44.215Z,22.39
2018-07-14T12:38:44.278Z,22.39
2018-07-14T12:39:46.234Z,22.38
2018-07-14T12:40:44.378Z,22.38
2018-07-14T12:41:44.312Z,22.4
2018-07-14T12:42:44.077Z,22.41
2018-07-14T12:43:44.078Z,22.4
2018-07-14T12:44:44.244Z,22.42
2018-07-14T12:45:44.116Z,22.41
2018-07-14T12:46:44.016Z,22.44
2018-07-14T12:47:44.158Z,22.42
2018-07-14T12:48:44.329Z,22.44
2018-07-14T12:49:44.421Z,22.43
2018-07-14T12:50:44.384Z,22.47
2018-07-14T12:51:44.064Z,22.44
2018-07-14T12:52:44.102Z,22.46
2018-07-14T12:53:44.501Z,22.43